createdAt,value
2023-05-04T00:01:56.562Z,2.40
2023-05-04T00:04:23.514Z,2.30
2023-05-04T00:06:50.154Z,2.10
2023-05-04T00:09:16.790Z,2.30
2023-05-04T00:11:43.452Z,2.07
2023-05-04T00:14:10.142Z,2.23
2023-05-04T00:16:37.056Z,2.13
2023-05-04T00:19:03.853Z,2.10
2023-05-04T00:21:30.666Z,2.40
2023-05-04T00:23:57.407Z,2.23
2023-05-04T00:26:24.064Z,2.40
2023-05-04T00:28:50.833Z,2.30
2023-05-04T00:31:19.053Z,1.97
2023-05-04T00:33:45.994Z,2.00
2023-05-04T00:36:13.927Z,2.37
2023-05-04T00:38:51.729Z,2.00
2023-05-04T00:41:19.977Z,2.23
2023-05-04T00:43:47.269Z,1.97
2023-05-04T00:46:15.007Z,2.20
2023-05-04T00:48:42.843Z,2.33
2023-05-04T00:51:11.947Z,2.10
2023-05-04T00:53:39.293Z,2.50
2023-05-04T00:56:07.503Z,1.90
2023-05-04T00:58:35.170Z,2.20
2023-05-04T01:01:03.350Z,2.07
2023-05-04T01:03:31.833Z,2.20
2023-05-04T01:06:34.871Z,2.30
2023-05-04T01:09:24.890Z,2.47
2023-05-04T01:12:23.988Z,2.20
2023-05-04T01:14:51.732Z,2.50
2023-05-04T01:17:18.404Z,2.20
2023-05-04T01:19:46.621Z,2.20
2023-05-04T01:22:13.357Z,2.30
2023-05-04T01:24:40.058Z,2.20
2023-05-04T01:27:15.305Z,2.13
2023-05-04T01:29:59.978Z,2.47
2023-05-04T01:32:29.603Z,2.40
2023-05-04T01:34:59.181Z,2.03
2023-05-04T01:37:26.311Z,2.30
2023-05-04T01:39:52.999Z,2.10
2023-05-04T01:42:19.798Z,2.17
2023-05-04T01:44:46.508Z,2.33
2023-05-04T01:47:13.251Z,2.13
2023-05-04T01:49:40.566Z,2.10
2023-05-04T01:52:07.239Z,2.37
2023-05-04T01:54:33.852Z,2.37
2023-05-04T01:57:01.851Z,2.17
2023-05-04T01:59:28.687Z,2.13
2023-05-04T02:01:55.561Z,2.10
2023-05-04T02:04:22.496Z,2.30
2023-05-04T02:06:49.174Z,2.37
2023-05-04T02:09:17.426Z,2.03
2023-05-04T02:11:44.458Z,2.47
2023-05-04T02:14:11.093Z,2.60
2023-05-04T02:16:37.998Z,2.00
2023-05-04T02:19:04.770Z,2.17
2023-05-04T02:21:31.454Z,2.10
2023-05-04T02:23:59.195Z,1.97
2023-05-04T02:26:25.904Z,2.17
2023-05-04T02:28:52.550Z,2.50
2023-05-04T02:31:19.220Z,2.23
2023-05-04T02:33:45.900Z,2.13
2023-05-04T02:36:12.527Z,2.27
2023-05-04T02:38:39.186Z,2.03
2023-05-04T02:41:06.166Z,2.17
2023-05-04T02:43:32.902Z,2.60
2023-05-04T02:45:59.716Z,2.10
2023-05-04T02:48:26.388Z,2.13
2023-05-04T02:50:53.095Z,2.07
2023-05-04T02:53:19.763Z,1.90
2023-05-04T02:55:46.414Z,1.93
2023-05-04T02:58:13.054Z,1.90
2023-05-04T03:00:39.885Z,2.20
2023-05-04T03:03:07.210Z,2.00
2023-05-04T03:05:33.943Z,1.87
2023-05-04T03:08:00.724Z,2.40
2023-05-04T03:10:27.353Z,2.13
2023-05-04T03:12:54.049Z,2.10
2023-05-04T03:15:20.777Z,2.20
2023-05-04T03:17:47.689Z,2.30
2023-05-04T03:20:14.624Z,2.40
2023-05-04T03:22:42.061Z,2.00
2023-05-04T03:25:09.456Z,2.40
2023-05-04T03:27:36.997Z,2.30
2023-05-04T03:30:04.349Z,2.10
2023-05-04T03:32:31.556Z,2.17
2023-05-04T03:34:58.431Z,1.87
2023-05-04T03:37:25.328Z,1.73
2023-05-04T03:39:51.969Z,2.40
2023-05-04T03:42:18.694Z,2.40
2023-05-04T03:44:47.129Z,2.30
2023-05-04T03:47:14.723Z,2.30
2023-05-04T03:49:41.401Z,2.33
2023-05-04T03:52:08.113Z,2.00
2023-05-04T03:54:37.010Z,2.40
2023-05-04T03:57:04.408Z,2.30
2023-05-04T03:59:32.175Z,2.50
2023-05-04T04:02:02.682Z,2.73
2023-05-04T04:04:29.839Z,2.30
2023-05-04T04:06:57.357Z,2.43
2023-05-04T04:09:24.508Z,2.20
2023-05-04T04:11:51.737Z,2.40
2023-05-04T04:14:18.350Z,2.37
2023-05-04T04:16:44.978Z,2.40
2023-05-04T04:19:12.206Z,2.67
2023-05-04T04:21:38.990Z,2.50
2023-05-04T04:24:05.781Z,2.83
2023-05-04T04:26:32.457Z,2.23
2023-05-04T04:28:59.047Z,2.57
2023-05-04T04:31:26.048Z,2.50
2023-05-04T04:33:54.946Z,2.77
2023-05-04T04:36:21.804Z,2.17
2023-05-04T04:38:48.585Z,2.70
2023-05-04T04:41:15.556Z,2.77
2023-05-04T04:43:42.159Z,3.00
2023-05-04T04:46:09.402Z,2.80
2023-05-04T04:48:36.345Z,2.53
2023-05-04T04:51:02.970Z,2.60
2023-05-04T04:53:29.613Z,2.77
2023-05-04T04:55:56.318Z,3.03
2023-05-04T04:58:23.101Z,3.13
2023-05-04T05:00:52.067Z,2.87
2023-05-04T05:03:18.909Z,3.03
2023-05-04T05:05:45.659Z,3.13
2023-05-04T05:08:12.304Z,3.20
2023-05-04T05:10:38.996Z,2.63
2023-05-04T05:13:06.245Z,2.83
2023-05-04T05:15:32.980Z,3.13
2023-05-04T05:17:59.733Z,2.70
2023-05-04T05:20:26.428Z,2.57
2023-05-04T05:22:53.040Z,3.20
2023-05-04T05:25:19.780Z,2.83
2023-05-04T05:27:46.540Z,2.80
2023-05-04T05:30:13.791Z,3.00
2023-05-04T05:32:40.664Z,2.67
2023-05-04T05:35:08.007Z,3.10
2023-05-04T05:37:34.786Z,3.20
2023-05-04T05:40:01.681Z,2.87
2023-05-04T05:42:30.098Z,2.87
2023-05-04T05:44:56.714Z,3.00
2023-05-04T05:47:23.330Z,2.67
2023-05-04T05:49:49.965Z,2.90
2023-05-04T05:52:17.668Z,3.30
2023-05-04T05:54:44.307Z,2.97
2023-05-04T05:57:10.926Z,3.00
2023-05-04T05:59:37.605Z,2.67
2023-05-04T06:02:04.254Z,2.77
2023-05-04T06:04:30.855Z,3.20
2023-05-04T06:06:57.539Z,2.97
2023-05-04T06:09:24.234Z,2.87
2023-05-04T06:11:51.891Z,3.07
2023-05-04T06:14:19.570Z,2.90
2023-05-04T06:16:46.334Z,2.83
2023-05-04T06:19:13.094Z,3.13
2023-05-04T06:21:39.684Z,2.93
2023-05-04T06:24:06.849Z,3.40
2023-05-04T06:26:33.624Z,3.30
2023-05-04T06:29:00.498Z,3.10
2023-05-04T06:31:27.948Z,2.90
2023-05-04T06:33:54.604Z,3.40
2023-05-04T06:36:21.758Z,3.80
2023-05-04T06:38:48.435Z,3.10
2023-05-04T06:41:15.081Z,3.30
2023-05-04T06:43:42.226Z,3.40
2023-05-04T06:46:08.965Z,3.70
2023-05-04T06:48:35.667Z,3.37
2023-05-04T06:51:03.051Z,3.63
2023-05-04T06:53:29.911Z,3.17
2023-05-04T06:55:56.609Z,3.63
2023-05-04T06:58:23.483Z,3.57
2023-05-04T07:00:50.859Z,3.37
2023-05-04T07:03:17.522Z,3.70
2023-05-04T07:05:48.625Z,3.63
2023-05-04T07:08:15.297Z,3.50
2023-05-04T07:10:42.056Z,4.27
2023-05-04T07:13:09.434Z,4.13
2023-05-04T07:15:36.378Z,4.40
2023-05-04T07:18:03.083Z,3.97
2023-05-04T07:20:29.761Z,4.03
2023-05-04T07:22:57.164Z,4.10
2023-05-04T07:25:25.216Z,4.10
2023-05-04T07:27:52.101Z,3.93
2023-05-04T07:30:19.797Z,4.03
2023-05-04T07:32:46.666Z,3.83
2023-05-04T07:35:13.445Z,3.97
2023-05-04T07:37:40.294Z,3.80
2023-05-04T07:40:07.846Z,3.37
2023-05-04T07:42:34.818Z,3.57
2023-05-04T07:45:01.675Z,3.13
2023-05-04T07:47:28.492Z,3.20
2023-05-04T07:49:55.245Z,3.77
2023-05-04T07:52:21.900Z,4.13
2023-05-04T07:54:52.174Z,4.27
2023-05-04T07:57:18.956Z,4.10
2023-05-04T07:59:45.559Z,4.47
2023-05-04T08:02:12.614Z,4.10
2023-05-04T08:04:39.319Z,3.57
2023-05-04T08:07:05.920Z,3.70
2023-05-04T08:09:32.606Z,4.20
2023-05-04T08:11:59.307Z,3.70
2023-05-04T08:14:25.962Z,3.57
2023-05-04T08:16:52.541Z,3.97
2023-05-04T08:19:19.285Z,3.07
2023-05-04T08:21:45.900Z,3.33
2023-05-04T08:24:12.518Z,3.03
2023-05-04T08:26:39.552Z,3.67
2023-05-04T08:29:10.564Z,4.10
2023-05-04T08:31:37.600Z,4.33
2023-05-04T08:34:04.359Z,3.40
2023-05-04T08:36:31.703Z,3.50
2023-05-04T08:38:58.358Z,3.37
2023-05-04T08:41:25.039Z,3.33
2023-05-04T08:43:52.075Z,3.42
2023-05-04T08:46:18.822Z,3.50
2023-05-04T08:48:46.300Z,3.22
2023-05-04T08:51:14.182Z,3.45
2023-05-04T08:53:45.556Z,3.97
2023-05-04T08:56:13.827Z,3.25
2023-05-04T08:58:50.111Z,3.72
2023-05-04T09:01:18.552Z,3.67
2023-05-04T09:03:47.501Z,3.30
2023-05-04T09:06:14.704Z,3.33
2023-05-04T09:08:42.269Z,3.47
2023-05-04T09:11:09.045Z,3.08
2023-05-04T09:13:36.529Z,3.70
2023-05-04T09:16:04.023Z,3.13
2023-05-04T09:18:41.266Z,3.05
2023-05-04T09:21:08.122Z,3.22
2023-05-04T09:23:55.275Z,2.70
2023-05-04T09:26:32.030Z,2.80
2023-05-04T09:29:15.434Z,2.75
2023-05-04T09:31:47.241Z,2.85
2023-05-04T09:34:14.924Z,2.60
2023-05-04T09:36:44.800Z,2.35
2023-05-04T09:39:15.872Z,3.25
2023-05-04T09:41:43.343Z,2.92
2023-05-04T09:44:24.096Z,2.45
2023-05-04T09:46:58.417Z,2.45
2023-05-04T09:49:32.648Z,2.20
2023-05-04T09:52:02.588Z,2.00
2023-05-04T09:54:34.701Z,2.10
2023-05-04T09:57:11.993Z,2.20
2023-05-04T09:59:39.669Z,2.25
2023-05-04T10:02:18.776Z,2.33
2023-05-04T10:04:49.718Z,2.40
2023-05-04T10:07:17.194Z,1.88
2023-05-04T10:09:44.470Z,2.13
2023-05-04T10:12:12.050Z,2.53
2023-05-04T10:14:38.783Z,2.13
2023-05-04T10:17:13.156Z,2.10
2023-05-04T10:19:59.146Z,1.80
2023-05-04T10:22:35.696Z,1.77
2023-05-04T10:25:33.300Z,2.17
2023-05-04T10:28:17.892Z,1.90
2023-05-04T10:30:44.659Z,1.70
2023-05-04T10:33:12.231Z,2.05
2023-05-04T10:35:50.828Z,2.03
2023-05-04T10:38:17.548Z,2.50
2023-05-04T10:40:48.827Z,2.30
2023-05-04T10:43:26.017Z,2.13
2023-05-04T10:45:52.878Z,2.20
2023-05-04T10:48:19.599Z,2.10
2023-05-04T10:50:49.199Z,2.05
2023-05-04T10:53:19.039Z,2.10
2023-05-04T10:55:47.937Z,2.10
2023-05-04T10:58:19.098Z,2.08
2023-05-04T11:00:47.876Z,1.73
2023-05-04T11:03:15.218Z,1.70
2023-05-04T11:05:45.771Z,1.80
2023-05-04T11:08:16.609Z,2.20
2023-05-04T11:10:43.709Z,2.03
2023-05-04T11:13:16.047Z,1.83
2023-05-04T11:15:46.967Z,1.80
2023-05-04T11:18:14.064Z,1.77
2023-05-04T11:20:41.559Z,1.90
2023-05-04T11:23:10.341Z,2.00
2023-05-04T11:25:37.984Z,1.80
2023-05-04T11:28:04.921Z,1.67
2023-05-04T11:30:35.432Z,2.08
2023-05-04T11:33:04.726Z,1.60
2023-05-04T11:35:32.200Z,1.67
2023-05-04T11:37:59.154Z,1.98
2023-05-04T11:40:26.918Z,1.90
2023-05-04T11:42:57.057Z,1.90
2023-05-04T11:45:27.081Z,1.40
2023-05-04T11:47:56.521Z,1.60
2023-05-04T11:50:24.586Z,1.80
2023-05-04T11:52:51.539Z,1.73
2023-05-04T11:55:28.985Z,1.80
2023-05-04T11:58:00.006Z,1.48
2023-05-04T12:00:46.552Z,1.60
2023-05-04T12:03:17.874Z,1.60
2023-05-04T12:05:49.223Z,1.50
2023-05-04T12:08:34.504Z,1.63
2023-05-04T12:11:26.146Z,1.63
2023-05-04T12:14:16.899Z,1.88
2023-05-04T12:16:54.152Z,1.65
2023-05-04T12:19:20.858Z,1.80
2023-05-04T12:21:53.084Z,1.60
2023-05-04T12:24:23.604Z,1.95
2023-05-04T12:26:50.707Z,1.70
2023-05-04T12:29:17.536Z,1.73
2023-05-04T12:31:44.303Z,1.90
2023-05-04T12:34:11.057Z,1.70
2023-05-04T12:36:37.627Z,1.80
2023-05-04T12:39:04.284Z,1.75
2023-05-04T12:41:31.608Z,2.05
2023-05-04T12:43:58.458Z,1.70
2023-05-04T12:46:25.598Z,1.90
2023-05-04T12:48:52.355Z,1.90
2023-05-04T12:51:19.020Z,1.75
2023-05-04T12:53:45.744Z,1.92
2023-05-04T12:56:12.425Z,1.90
2023-05-04T12:58:39.075Z,1.75
2023-05-04T13:01:05.846Z,1.75
2023-05-04T13:03:32.690Z,1.80
2023-05-04T13:05:59.466Z,1.80
2023-05-04T13:08:26.205Z,1.73
2023-05-04T13:10:52.908Z,1.90
2023-05-04T13:13:22.897Z,1.95
2023-05-04T13:15:50.628Z,1.75
2023-05-04T13:18:17.489Z,1.90
2023-05-04T13:20:44.247Z,1.73
2023-05-04T13:23:11.031Z,1.60
2023-05-04T13:25:37.682Z,1.73
2023-05-04T13:28:04.359Z,1.85
2023-05-04T13:30:31.030Z,1.90
2023-05-04T13:32:57.917Z,1.67
2023-05-04T13:35:24.836Z,1.77
2023-05-04T13:37:51.507Z,1.70
2023-05-04T13:40:18.309Z,1.50
2023-05-04T13:42:45.185Z,1.73
2023-05-04T13:45:12.136Z,2.10
2023-05-04T13:47:40.298Z,1.88
2023-05-04T13:50:07.951Z,1.90
2023-05-04T13:52:35.134Z,1.80
2023-05-04T13:55:02.098Z,2.00
2023-05-04T13:57:28.762Z,1.50
2023-05-04T14:00:06.390Z,1.70
2023-05-04T14:02:40.625Z,1.52
2023-05-04T14:05:07.960Z,1.50
2023-05-04T14:07:35.222Z,1.90
2023-05-04T14:10:02.391Z,1.83
2023-05-04T14:12:29.155Z,2.00
2023-05-04T14:14:57.170Z,1.70
2023-05-04T14:17:23.900Z,1.50
2023-05-04T14:19:50.583Z,1.70
2023-05-04T14:22:17.209Z,1.98
2023-05-04T14:24:43.848Z,1.88
2023-05-04T14:27:10.580Z,1.55
2023-05-04T14:29:37.213Z,1.60
2023-05-04T14:32:04.202Z,1.83
2023-05-04T14:34:31.183Z,1.70
2023-05-04T14:36:57.828Z,1.60
2023-05-04T14:39:24.784Z,1.67
2023-05-04T14:41:52.810Z,1.58
2023-05-04T14:44:20.243Z,1.73
2023-05-04T14:46:46.939Z,1.73
2023-05-04T14:49:21.563Z,1.60
2023-05-04T14:51:55.366Z,1.65
2023-05-04T14:54:22.003Z,1.60
2023-05-04T14:56:50.755Z,1.60
2023-05-04T14:59:19.657Z,1.60
2023-05-04T15:01:46.950Z,1.63
2023-05-04T15:04:13.723Z,1.67
2023-05-04T15:06:40.485Z,1.90
2023-05-04T15:09:07.237Z,1.60
2023-05-04T15:11:33.938Z,1.73
2023-05-04T15:14:01.317Z,2.28
2023-05-04T15:16:32.129Z,1.90
2023-05-04T15:18:59.506Z,2.00
2023-05-04T15:21:26.501Z,2.30
2023-05-04T15:23:53.267Z,1.90
2023-05-04T15:26:19.879Z,1.75
2023-05-04T15:28:46.646Z,2.10
2023-05-04T15:31:13.806Z,1.95
2023-05-04T15:33:40.554Z,2.30
2023-05-04T15:36:10.705Z,2.35
2023-05-04T15:38:37.389Z,1.95
2023-05-04T15:41:05.800Z,2.00
2023-05-04T15:43:33.572Z,1.98
2023-05-04T15:46:00.378Z,2.13
2023-05-04T15:48:27.729Z,2.00
2023-05-04T15:50:54.794Z,1.92
2023-05-04T15:53:21.482Z,1.90
2023-05-04T15:55:48.557Z,1.80
2023-05-04T15:58:15.221Z,2.10
2023-05-04T16:00:42.203Z,2.00
2023-05-04T16:03:09.121Z,2.35
2023-05-04T16:05:36.003Z,1.92
2023-05-04T16:08:02.763Z,2.13
2023-05-04T16:10:29.454Z,2.00
2023-05-04T16:12:56.263Z,2.17
2023-05-04T16:15:23.015Z,2.20
2023-05-04T16:17:49.754Z,2.20
2023-05-04T16:20:16.395Z,2.20
2023-05-04T16:22:43.089Z,2.20
2023-05-04T16:25:11.179Z,2.17
2023-05-04T16:27:38.215Z,2.25
2023-05-04T16:30:05.560Z,2.15
2023-05-04T16:32:32.473Z,2.10
2023-05-04T16:34:59.119Z,2.03
2023-05-04T16:37:25.770Z,1.98
2023-05-04T16:39:53.765Z,2.20
2023-05-04T16:42:21.732Z,2.03
2023-05-04T16:44:48.932Z,2.20
2023-05-04T16:47:16.176Z,2.03
2023-05-04T16:49:42.865Z,2.10
2023-05-04T16:52:09.515Z,2.20
2023-05-04T16:54:36.133Z,2.00
2023-05-04T16:57:02.800Z,2.50
2023-05-04T16:59:29.476Z,2.20
2023-05-04T17:01:57.298Z,2.10
2023-05-04T17:04:25.210Z,2.20
2023-05-04T17:06:51.867Z,2.15
2023-05-04T17:09:18.500Z,2.40
2023-05-04T17:11:45.243Z,2.35
2023-05-04T17:14:11.933Z,2.42
2023-05-04T17:16:38.644Z,1.98
2023-05-04T17:19:05.451Z,2.30
2023-05-04T17:21:32.844Z,2.33
2023-05-04T17:23:59.495Z,2.00
2023-05-04T17:26:26.187Z,2.05
2023-05-04T17:28:52.868Z,2.50
2023-05-04T17:31:19.564Z,2.10
2023-05-04T17:33:46.418Z,2.53
2023-05-04T17:36:13.112Z,1.90
2023-05-04T17:38:40.789Z,2.00
2023-05-04T17:41:09.673Z,1.97
2023-05-04T17:43:36.629Z,2.10
2023-05-04T17:46:03.591Z,2.47
2023-05-04T17:48:31.281Z,2.42
2023-05-04T17:50:58.351Z,2.13
2023-05-04T17:53:28.285Z,2.20
2023-05-04T17:55:55.264Z,2.03
2023-05-04T17:58:21.985Z,2.20
2023-05-04T18:00:50.629Z,2.13
2023-05-04T18:03:19.386Z,2.43
2023-05-04T18:05:46.355Z,2.10
2023-05-04T18:08:13.485Z,2.07
2023-05-04T18:10:40.309Z,2.20
2023-05-04T18:13:07.112Z,2.17
2023-05-04T18:15:33.901Z,2.60
2023-05-04T18:18:00.679Z,2.53
2023-05-04T18:20:27.383Z,2.73
2023-05-04T18:22:54.006Z,2.30
2023-05-04T18:25:20.656Z,2.47
2023-05-04T18:27:47.299Z,2.50
2023-05-04T18:30:14.333Z,2.20
2023-05-04T18:32:41.024Z,2.47
2023-05-04T18:35:08.555Z,3.10
2023-05-04T18:37:35.265Z,3.00
2023-05-04T18:40:02.007Z,2.60
2023-05-04T18:42:28.635Z,2.33
2023-05-04T18:44:56.132Z,2.87
2023-05-04T18:47:22.797Z,3.00
2023-05-04T18:49:50.915Z,2.47
2023-05-04T18:52:18.159Z,2.50
2023-05-04T18:54:44.823Z,2.70
2023-05-04T18:57:12.051Z,2.63
2023-05-04T18:59:38.778Z,2.70
2023-05-04T19:02:05.426Z,3.07
2023-05-04T19:04:32.103Z,3.20
2023-05-04T19:06:59.006Z,2.90
2023-05-04T19:09:25.727Z,2.50
2023-05-04T19:11:52.591Z,3.57
2023-05-04T19:14:19.376Z,4.17
2023-05-04T19:16:46.002Z,3.60
2023-05-04T19:19:12.657Z,3.80
2023-05-04T19:21:39.249Z,3.90
2023-05-04T19:24:07.034Z,4.80
2023-05-04T19:26:33.729Z,4.73
2023-05-04T19:29:00.450Z,4.80
2023-05-04T19:31:27.283Z,4.40
2023-05-04T19:33:53.975Z,3.97
2023-05-04T19:36:20.641Z,3.90
2023-05-04T19:38:47.302Z,3.40
2023-05-04T19:41:14.271Z,3.73
2023-05-04T19:43:41.032Z,3.07
2023-05-04T19:46:08.084Z,3.20
2023-05-04T19:48:34.817Z,3.20
2023-05-04T19:51:02.079Z,3.20
2023-05-04T19:53:28.777Z,2.80
2023-05-04T19:55:55.537Z,2.80
2023-05-04T19:58:25.853Z,2.93
2023-05-04T20:00:53.111Z,2.87
2023-05-04T20:03:19.917Z,2.70
2023-05-04T20:05:46.608Z,2.80
2023-05-04T20:08:13.377Z,2.50
2023-05-04T20:10:40.956Z,2.87
2023-05-04T20:13:07.661Z,2.70
2023-05-04T20:15:34.317Z,2.87
2023-05-04T20:18:01.033Z,2.43
2023-05-04T20:20:27.861Z,3.10
2023-05-04T20:22:55.960Z,2.80
2023-05-04T20:25:22.865Z,2.90
2023-05-04T20:27:52.064Z,2.73
2023-05-04T20:30:18.797Z,2.87
2023-05-04T20:32:47.957Z,3.00
2023-05-04T20:35:15.011Z,2.80
2023-05-04T20:37:41.663Z,2.80
2023-05-04T20:40:09.203Z,3.27
2023-05-04T20:42:36.120Z,2.53
2023-05-04T20:45:02.849Z,2.80
2023-05-04T20:47:29.986Z,2.67
2023-05-04T20:49:56.759Z,2.57
2023-05-04T20:52:23.540Z,2.60
2023-05-04T20:54:50.399Z,2.80
2023-05-04T20:57:17.107Z,2.57
2023-05-04T20:59:43.763Z,2.53
2023-05-04T21:02:10.496Z,2.70
2023-05-04T21:04:37.134Z,2.83
2023-05-04T21:07:03.797Z,2.60
2023-05-04T21:09:30.476Z,2.60
2023-05-04T21:11:58.355Z,2.50
2023-05-04T21:14:25.025Z,3.00
2023-05-04T21:16:51.626Z,3.07
2023-05-04T21:19:18.664Z,3.13
2023-05-04T21:21:45.449Z,2.90
2023-05-04T21:24:13.248Z,2.90
2023-05-04T21:26:42.726Z,2.70
2023-05-04T21:29:12.954Z,2.70
2023-05-04T21:31:39.937Z,2.80
2023-05-04T21:34:07.057Z,3.33
2023-05-04T21:36:33.737Z,2.90
2023-05-04T21:39:00.410Z,3.03
2023-05-04T21:41:27.041Z,3.17
2023-05-04T21:43:53.633Z,3.17
2023-05-04T21:46:20.458Z,3.43
2023-05-04T21:48:47.303Z,3.40
2023-05-04T21:51:14.010Z,2.87
2023-05-04T21:53:43.060Z,2.80
2023-05-04T21:56:10.899Z,3.60
2023-05-04T21:58:41.872Z,3.17
2023-05-04T22:01:09.088Z,3.20
2023-05-04T22:03:36.292Z,2.93
2023-05-04T22:06:03.072Z,3.00
2023-05-04T22:08:30.090Z,3.07
2023-05-04T22:10:57.614Z,2.93
2023-05-04T22:13:24.721Z,3.20
2023-05-04T22:15:52.572Z,3.00
2023-05-04T22:18:20.269Z,2.90
2023-05-04T22:20:46.906Z,2.80
2023-05-04T22:23:13.647Z,3.07
2023-05-04T22:25:40.455Z,3.10
2023-05-04T22:28:07.283Z,3.33
2023-05-04T22:30:34.110Z,3.10
2023-05-04T22:33:00.918Z,2.63
2023-05-04T22:35:27.631Z,2.63
2023-05-04T22:37:54.340Z,2.90
2023-05-04T22:40:22.494Z,3.07
2023-05-04T22:42:49.227Z,2.77
2023-05-04T22:45:17.843Z,2.47
2023-05-04T22:47:45.356Z,2.90
2023-05-04T22:50:12.443Z,2.70
2023-05-04T22:52:39.373Z,2.90
2023-05-04T22:55:08.103Z,3.03
2023-05-04T22:57:35.066Z,3.03
2023-05-04T23:00:01.743Z,3.17
2023-05-04T23:02:28.642Z,3.00
2023-05-04T23:04:56.957Z,3.10
2023-05-04T23:07:24.007Z,3.20
2023-05-04T23:09:50.752Z,3.20
2023-05-04T23:12:17.982Z,2.53
2023-05-04T23:14:44.696Z,3.00
2023-05-04T23:17:11.409Z,2.87
2023-05-04T23:19:38.053Z,2.70
2023-05-04T23:22:04.744Z,2.90
2023-05-04T23:24:31.337Z,2.77
2023-05-04T23:26:58.850Z,3.10
2023-05-04T23:29:25.575Z,2.93
2023-05-04T23:31:53.647Z,2.60
2023-05-04T23:34:20.348Z,3.07
2023-05-04T23:36:46.956Z,3.10
2023-05-04T23:39:13.589Z,2.80
2023-05-04T23:41:40.429Z,2.87
2023-05-04T23:44:07.327Z,2.70
2023-05-04T23:46:33.970Z,3.10
2023-05-04T23:49:00.711Z,3.30
2023-05-04T23:51:28.505Z,3.17
2023-05-04T23:53:55.827Z,2.70
2023-05-04T23:56:22.535Z,2.73
2023-05-04T23:58:49.203Z,3.10
